sensor_id;sensor_type;location;lat;lon;timestamp;P1;durP1;ratioP1;P2;durP2;ratioP2
61127;SDS011;47013;42.664;23.242;2022-11-15T00:01:06;1.80;;;1.08;;
61127;SDS011;47013;42.664;23.242;2022-11-15T00:03:39;0.40;;;0.40;;
61127;SDS011;47013;42.664;23.242;2022-11-15T00:06:04;1.70;;;0.82;;
61127;SDS011;47013;42.664;23.242;2022-11-15T00:08:30;1.75;;;1.25;;
61127;SDS011;47013;42.664;23.242;2022-11-15T00:10:57;1.75;;;0.85;;
61127;SDS011;47013;42.664;23.242;2022-11-15T00:13:24;1.42;;;1.33;;
61127;SDS011;47013;42.664;23.242;2022-11-15T00:15:50;0.47;;;0.47;;
61127;SDS011;47013;42.664;23.242;2022-11-15T00:18:16;2.13;;;1.92;;
61127;SDS011;47013;42.664;23.242;2022-11-15T00:20:41;2.78;;;1.70;;
61127;SDS011;47013;42.664;23.242;2022-11-15T00:23:08;0.70;;;0.70;;
61127;SDS011;47013;42.664;23.242;2022-11-15T00:25:33;5.25;;;1.30;;
61127;SDS011;47013;42.664;23.242;2022-11-15T00:27:59;2.25;;;1.48;;
61127;SDS011;47013;42.664;23.242;2022-11-15T00:30:25;2.15;;;1.50;;
61127;SDS011;47013;42.664;23.242;2022-11-15T00:32:51;1.08;;;0.98;;
61127;SDS011;47013;42.664;23.242;2022-11-15T00:35:17;2.28;;;1.30;;
61127;SDS011;47013;42.664;23.242;2022-11-15T00:37:43;1.95;;;1.35;;
61127;SDS011;47013;42.664;23.242;2022-11-15T00:40:09;1.88;;;1.48;;
61127;SDS011;47013;42.664;23.242;2022-11-15T00:42:35;2.10;;;1.33;;
61127;SDS011;47013;42.664;23.242;2022-11-15T00:45:00;1.08;;;0.95;;
61127;SDS011;47013;42.664;23.242;2022-11-15T00:47:26;1.52;;;1.27;;
61127;SDS011;47013;42.664;23.242;2022-11-15T00:49:51;1.48;;;1.27;;
61127;SDS011;47013;42.664;23.242;2022-11-15T00:52:16;5.47;;;2.63;;
61127;SDS011;47013;42.664;23.242;2022-11-15T00:54:42;1.85;;;1.25;;
61127;SDS011;47013;42.664;23.242;2022-11-15T00:57:08;0.43;;;0.43;;
61127;SDS011;47013;42.664;23.242;2022-11-15T00:59:33;0.45;;;0.43;;
61127;SDS011;47013;42.664;23.242;2022-11-15T01:01:59;0.98;;;0.70;;
61127;SDS011;47013;42.664;23.242;2022-11-15T01:04:24;3.97;;;1.67;;
61127;SDS011;47013;42.664;23.242;2022-11-15T01:06:50;0.63;;;0.60;;
61127;SDS011;47013;42.664;23.242;2022-11-15T01:09:16;4.03;;;1.05;;
61127;SDS011;47013;42.664;23.242;2022-11-15T01:11:41;0.63;;;0.63;;
61127;SDS011;47013;42.664;23.242;2022-11-15T01:14:06;0.77;;;0.57;;
61127;SDS011;47013;42.664;23.242;2022-11-15T01:16:32;0.63;;;0.63;;
61127;SDS011;47013;42.664;23.242;2022-11-15T01:18:58;3.45;;;1.70;;
61127;SDS011;47013;42.664;23.242;2022-11-15T01:21:24;0.65;;;0.55;;
61127;SDS011;47013;42.664;23.242;2022-11-15T01:23:52;1.67;;;1.48;;
61127;SDS011;47013;42.664;23.242;2022-11-15T01:26:18;0.73;;;0.50;;
61127;SDS011;47013;42.664;23.242;2022-11-15T01:28:44;1.33;;;1.17;;
61127;SDS011;47013;42.664;23.242;2022-11-15T01:31:15;1.55;;;1.20;;
61127;SDS011;47013;42.664;23.242;2022-11-15T01:33:42;1.63;;;1.20;;
61127;SDS011;47013;42.664;23.242;2022-11-15T01:36:12;0.80;;;0.70;;
61127;SDS011;47013;42.664;23.242;2022-11-15T01:38:42;1.33;;;1.10;;
61127;SDS011;47013;42.664;23.242;2022-11-15T01:41:19;1.25;;;1.13;;
61127;SDS011;47013;42.664;23.242;2022-11-15T01:43:46;2.80;;;1.15;;
61127;SDS011;47013;42.664;23.242;2022-11-15T01:46:24;8.63;;;2.20;;
61127;SDS011;47013;42.664;23.242;2022-11-15T01:48:57;0.68;;;0.65;;
61127;SDS011;47013;42.664;23.242;2022-11-15T01:51:25;0.73;;;0.55;;
61127;SDS011;47013;42.664;23.242;2022-11-15T01:53:55;0.65;;;0.65;;
61127;SDS011;47013;42.664;23.242;2022-11-15T01:58:50;0.70;;;0.70;;
61127;SDS011;47013;42.664;23.242;2022-11-15T02:01:18;1.30;;;1.08;;
61127;SDS011;47013;42.664;23.242;2022-11-15T02:03:49;0.20;;;0.20;;
61127;SDS011;47013;42.664;23.242;2022-11-15T02:06:28;1.30;;;1.02;;
61127;SDS011;47013;42.664;23.242;2022-11-15T02:08:54;0.68;;;0.68;;
61127;SDS011;47013;42.664;23.242;2022-11-15T02:11:21;0.57;;;0.55;;
61127;SDS011;47013;42.664;23.242;2022-11-15T02:13:46;1.35;;;0.98;;
61127;SDS011;47013;42.664;23.242;2022-11-15T02:30:51;1.45;;;0.88;;
61127;SDS011;47013;42.664;23.242;2022-11-15T02:36:40;1.30;;;0.98;;
61127;SDS011;47013;42.664;23.242;2022-11-15T02:42:07;0.82;;;0.40;;
61127;SDS011;47013;42.664;23.242;2022-11-15T02:44:56;0.90;;;0.85;;
61127;SDS011;47013;42.664;23.242;2022-11-15T02:47:25;1.58;;;0.98;;
61127;SDS011;47013;42.664;23.242;2022-11-15T02:49:56;0.57;;;0.57;;
61127;SDS011;47013;42.664;23.242;2022-11-15T02:52:25;0.47;;;0.47;;
61127;SDS011;47013;42.664;23.242;2022-11-15T02:54:58;0.25;;;0.25;;
61127;SDS011;47013;42.664;23.242;2022-11-15T03:00:06;0.80;;;0.77;;
61127;SDS011;47013;42.664;23.242;2022-11-15T03:08:31;1.02;;;0.70;;
61127;SDS011;47013;42.664;23.242;2022-11-15T03:11:09;0.20;;;0.20;;
61127;SDS011;47013;42.664;23.242;2022-11-15T03:22:00;0.50;;;0.47;;
61127;SDS011;47013;42.664;23.242;2022-11-15T03:24:28;0.63;;;0.55;;
61127;SDS011;47013;42.664;23.242;2022-11-15T03:26:56;0.70;;;0.57;;
61127;SDS011;47013;42.664;23.242;2022-11-15T03:29:27;0.77;;;0.77;;
61127;SDS011;47013;42.664;23.242;2022-11-15T03:32:08;1.77;;;1.48;;
61127;SDS011;47013;42.664;23.242;2022-11-15T03:37:35;0.45;;;0.38;;
61127;SDS011;47013;42.664;23.242;2022-11-15T03:40:27;1.25;;;0.75;;
61127;SDS011;47013;42.664;23.242;2022-11-15T03:45:33;1.35;;;1.15;;
61127;SDS011;47013;42.664;23.242;2022-11-15T03:48:12;1.52;;;1.15;;
61127;SDS011;47013;42.664;23.242;2022-11-15T03:50:41;0.70;;;0.63;;
61127;SDS011;47013;42.664;23.242;2022-11-15T03:53:08;1.77;;;1.40;;
61127;SDS011;47013;42.664;23.242;2022-11-15T03:55:35;1.80;;;1.48;;
61127;SDS011;47013;42.664;23.242;2022-11-15T03:58:00;0.90;;;0.90;;
61127;SDS011;47013;42.664;23.242;2022-11-15T04:00:26;4.65;;;2.47;;
61127;SDS011;47013;42.664;23.242;2022-11-15T04:02:52;3.33;;;2.17;;
61127;SDS011;47013;42.664;23.242;2022-11-15T04:05:18;1.17;;;0.82;;
61127;SDS011;47013;42.664;23.242;2022-11-15T04:07:43;0.98;;;0.88;;
61127;SDS011;47013;42.664;23.242;2022-11-15T04:10:12;1.38;;;1.23;;
61127;SDS011;47013;42.664;23.242;2022-11-15T04:12:38;0.80;;;0.73;;
61127;SDS011;47013;42.664;23.242;2022-11-15T04:15:08;1.70;;;1.15;;
61127;SDS011;47013;42.664;23.242;2022-11-15T04:17:45;1.45;;;1.00;;
61127;SDS011;47013;42.664;23.242;2022-11-15T04:20:17;1.75;;;0.93;;
61127;SDS011;47013;42.664;23.242;2022-11-15T04:23:03;3.47;;;1.73;;
61127;SDS011;47013;42.664;23.242;2022-11-15T04:25:54;0.65;;;0.57;;
61127;SDS011;47013;42.664;23.242;2022-11-15T04:28:21;0.57;;;0.57;;
61127;SDS011;47013;42.664;23.242;2022-11-15T04:30:47;2.78;;;1.02;;
61127;SDS011;47013;42.664;23.242;2022-11-15T04:33:12;1.25;;;0.50;;
61127;SDS011;47013;42.664;23.242;2022-11-15T04:35:38;3.78;;;2.35;;
61127;SDS011;47013;42.664;23.242;2022-11-15T04:38:04;3.83;;;2.10;;
61127;SDS011;47013;42.664;23.242;2022-11-15T04:40:31;2.60;;;1.10;;
61127;SDS011;47013;42.664;23.242;2022-11-15T04:42:56;2.13;;;1.45;;
61127;SDS011;47013;42.664;23.242;2022-11-15T04:45:22;0.30;;;0.30;;
61127;SDS011;47013;42.664;23.242;2022-11-15T04:47:47;5.55;;;1.55;;
61127;SDS011;47013;42.664;23.242;2022-11-15T04:50:13;1.23;;;0.95;;
61127;SDS011;47013;42.664;23.242;2022-11-15T04:52:40;1.70;;;0.88;;
61127;SDS011;47013;42.664;23.242;2022-11-15T04:55:07;1.05;;;0.80;;
61127;SDS011;47013;42.664;23.242;2022-11-15T04:57:34;1.65;;;1.23;;
61127;SDS011;47013;42.664;23.242;2022-11-15T04:59:59;0.70;;;0.70;;
61127;SDS011;47013;42.664;23.242;2022-11-15T05:02:25;0.73;;;0.68;;
61127;SDS011;47013;42.664;23.242;2022-11-15T05:05:10;1.75;;;1.10;;
61127;SDS011;47013;42.664;23.242;2022-11-15T05:07:35;1.85;;;1.33;;
61127;SDS011;47013;42.664;23.242;2022-11-15T05:10:01;0.50;;;0.50;;
61127;SDS011;47013;42.664;23.242;2022-11-15T05:12:26;0.68;;;0.63;;
61127;SDS011;47013;42.664;23.242;2022-11-15T05:14:51;2.63;;;1.65;;
61127;SDS011;47013;42.664;23.242;2022-11-15T05:17:17;2.03;;;1.42;;
61127;SDS011;47013;42.664;23.242;2022-11-15T05:19:42;1.10;;;0.98;;
61127;SDS011;47013;42.664;23.242;2022-11-15T05:22:07;1.75;;;0.90;;
61127;SDS011;47013;42.664;23.242;2022-11-15T05:24:33;1.45;;;1.08;;
61127;SDS011;47013;42.664;23.242;2022-11-15T05:26:58;0.57;;;0.57;;
61127;SDS011;47013;42.664;23.242;2022-11-15T05:29:23;1.23;;;0.95;;
61127;SDS011;47013;42.664;23.242;2022-11-15T05:31:49;1.38;;;1.08;;
61127;SDS011;47013;42.664;23.242;2022-11-15T05:34:14;0.70;;;0.50;;
61127;SDS011;47013;42.664;23.242;2022-11-15T05:36:43;1.20;;;1.02;;
61127;SDS011;47013;42.664;23.242;2022-11-15T05:39:12;0.35;;;0.32;;
61127;SDS011;47013;42.664;23.242;2022-11-15T05:44:11;1.70;;;0.98;;
61127;SDS011;47013;42.664;23.242;2022-11-15T05:46:39;1.40;;;1.23;;
61127;SDS011;47013;42.664;23.242;2022-11-15T05:49:06;0.38;;;0.38;;
61127;SDS011;47013;42.664;23.242;2022-11-15T05:51:35;4.43;;;2.00;;
61127;SDS011;47013;42.664;23.242;2022-11-15T05:54:00;6.88;;;2.22;;
61127;SDS011;47013;42.664;23.242;2022-11-15T05:56:26;1.73;;;1.20;;
61127;SDS011;47013;42.664;23.242;2022-11-15T05:58:53;0.47;;;0.47;;
61127;SDS011;47013;42.664;23.242;2022-11-15T06:01:21;1.40;;;1.15;;
61127;SDS011;47013;42.664;23.242;2022-11-15T06:03:47;1.88;;;1.23;;
61127;SDS011;47013;42.664;23.242;2022-11-15T06:06:13;1.33;;;0.98;;
61127;SDS011;47013;42.664;23.242;2022-11-15T06:08:38;2.92;;;1.98;;
61127;SDS011;47013;42.664;23.242;2022-11-15T06:11:06;11.15;;;4.93;;
61127;SDS011;47013;42.664;23.242;2022-11-15T06:13:33;5.78;;;2.95;;
61127;SDS011;47013;42.664;23.242;2022-11-15T06:15:59;9.35;;;5.35;;
61127;SDS011;47013;42.664;23.242;2022-11-15T06:18:24;3.92;;;2.67;;
61127;SDS011;47013;42.664;23.242;2022-11-15T06:20:50;3.17;;;1.75;;
61127;SDS011;47013;42.664;23.242;2022-11-15T06:23:15;2.58;;;1.42;;
61127;SDS011;47013;42.664;23.242;2022-11-15T06:25:40;1.60;;;0.95;;
61127;SDS011;47013;42.664;23.242;2022-11-15T06:28:06;1.15;;;0.73;;
61127;SDS011;47013;42.664;23.242;2022-11-15T06:30:31;2.20;;;1.58;;
61127;SDS011;47013;42.664;23.242;2022-11-15T06:33:00;1.95;;;1.42;;
61127;SDS011;47013;42.664;23.242;2022-11-15T06:35:28;5.25;;;1.85;;
61127;SDS011;47013;42.664;23.242;2022-11-15T06:37:54;2.90;;;1.95;;
61127;SDS011;47013;42.664;23.242;2022-11-15T06:40:19;2.75;;;1.85;;
61127;SDS011;47013;42.664;23.242;2022-11-15T06:42:45;1.83;;;1.23;;
61127;SDS011;47013;42.664;23.242;2022-11-15T06:45:10;1.67;;;1.35;;
61127;SDS011;47013;42.664;23.242;2022-11-15T06:47:37;2.25;;;1.50;;
61127;SDS011;47013;42.664;23.242;2022-11-15T06:50:09;4.18;;;1.80;;
61127;SDS011;47013;42.664;23.242;2022-11-15T06:52:34;2.28;;;1.00;;
61127;SDS011;47013;42.664;23.242;2022-11-15T06:55:00;0.20;;;0.20;;
61127;SDS011;47013;42.664;23.242;2022-11-15T06:57:25;0.70;;;0.70;;
61127;SDS011;47013;42.664;23.242;2022-11-15T06:59:50;0.85;;;0.73;;
61127;SDS011;47013;42.664;23.242;2022-11-15T07:02:16;2.63;;;1.73;;
61127;SDS011;47013;42.664;23.242;2022-11-15T07:04:41;0.38;;;0.38;;
61127;SDS011;47013;42.664;23.242;2022-11-15T07:07:06;1.30;;;0.98;;
61127;SDS011;47013;42.664;23.242;2022-11-15T07:09:32;2.30;;;1.65;;
61127;SDS011;47013;42.664;23.242;2022-11-15T07:11:57;2.08;;;1.02;;
61127;SDS011;47013;42.664;23.242;2022-11-15T07:14:23;1.02;;;0.93;;
61127;SDS011;47013;42.664;23.242;2022-11-15T07:16:48;1.33;;;1.02;;
61127;SDS011;47013;42.664;23.242;2022-11-15T07:19:13;0.30;;;0.30;;
61127;SDS011;47013;42.664;23.242;2022-11-15T07:21:39;0.63;;;0.60;;
61127;SDS011;47013;42.664;23.242;2022-11-15T07:24:04;2.03;;;1.08;;
61127;SDS011;47013;42.664;23.242;2022-11-15T07:26:30;1.08;;;0.88;;
61127;SDS011;47013;42.664;23.242;2022-11-15T07:28:55;0.45;;;0.45;;
61127;SDS011;47013;42.664;23.242;2022-11-15T07:31:20;0.60;;;0.60;;
61127;SDS011;47013;42.664;23.242;2022-11-15T07:33:47;1.95;;;1.50;;
61127;SDS011;47013;42.664;23.242;2022-11-15T07:36:12;7.22;;;1.55;;
61127;SDS011;47013;42.664;23.242;2022-11-15T07:38:37;0.32;;;0.32;;
61127;SDS011;47013;42.664;23.242;2022-11-15T07:41:04;1.90;;;1.30;;
61127;SDS011;47013;42.664;23.242;2022-11-15T07:43:30;6.10;;;1.35;;
61127;SDS011;47013;42.664;23.242;2022-11-15T07:45:58;0.40;;;0.40;;
61127;SDS011;47013;42.664;23.242;2022-11-15T07:48:24;9.38;;;2.20;;
61127;SDS011;47013;42.664;23.242;2022-11-15T07:50:49;1.77;;;1.38;;
61127;SDS011;47013;42.664;23.242;2022-11-15T07:53:15;1.05;;;0.90;;
61127;SDS011;47013;42.664;23.242;2022-11-15T07:55:40;2.75;;;1.45;;
61127;SDS011;47013;42.664;23.242;2022-11-15T07:58:07;0.85;;;0.50;;
61127;SDS011;47013;42.664;23.242;2022-11-15T08:00:34;3.17;;;1.63;;
61127;SDS011;47013;42.664;23.242;2022-11-15T08:05:36;1.30;;;1.05;;
61127;SDS011;47013;42.664;23.242;2022-11-15T08:08:03;4.65;;;1.73;;
61127;SDS011;47013;42.664;23.242;2022-11-15T08:10:28;1.38;;;1.20;;
61127;SDS011;47013;42.664;23.242;2022-11-15T08:12:58;1.45;;;1.08;;
61127;SDS011;47013;42.664;23.242;2022-11-15T08:15:24;1.70;;;1.40;;
61127;SDS011;47013;42.664;23.242;2022-11-15T08:17:54;3.20;;;2.38;;
61127;SDS011;47013;42.664;23.242;2022-11-15T08:20:23;2.20;;;1.48;;
61127;SDS011;47013;42.664;23.242;2022-11-15T08:22:50;0.90;;;0.90;;
61127;SDS011;47013;42.664;23.242;2022-11-15T08:25:16;1.48;;;1.13;;
61127;SDS011;47013;42.664;23.242;2022-11-15T08:27:41;1.08;;;0.98;;
61127;SDS011;47013;42.664;23.242;2022-11-15T08:30:07;0.50;;;0.50;;
61127;SDS011;47013;42.664;23.242;2022-11-15T08:32:33;3.42;;;1.40;;
61127;SDS011;47013;42.664;23.242;2022-11-15T08:34:59;0.82;;;0.82;;
61127;SDS011;47013;42.664;23.242;2022-11-15T08:37:24;1.52;;;1.38;;
61127;SDS011;47013;42.664;23.242;2022-11-15T08:39:50;1.80;;;1.30;;
61127;SDS011;47013;42.664;23.242;2022-11-15T08:42:15;7.35;;;3.15;;
61127;SDS011;47013;42.664;23.242;2022-11-15T08:44:41;1.15;;;1.05;;
61127;SDS011;47013;42.664;23.242;2022-11-15T08:47:06;2.75;;;1.88;;
61127;SDS011;47013;42.664;23.242;2022-11-15T08:49:32;6.22;;;1.58;;
61127;SDS011;47013;42.664;23.242;2022-11-15T08:51:57;2.13;;;1.67;;
61127;SDS011;47013;42.664;23.242;2022-11-15T08:54:23;1.40;;;1.20;;
61127;SDS011;47013;42.664;23.242;2022-11-15T08:56:48;2.95;;;1.27;;
61127;SDS011;47013;42.664;23.242;2022-11-15T08:59:13;2.05;;;1.85;;
61127;SDS011;47013;42.664;23.242;2022-11-15T09:01:39;3.22;;;2.30;;
61127;SDS011;47013;42.664;23.242;2022-11-15T09:04:04;2.55;;;2.10;;
61127;SDS011;47013;42.664;23.242;2022-11-15T09:06:30;1.45;;;1.10;;
61127;SDS011;47013;42.664;23.242;2022-11-15T09:08:56;1.73;;;1.13;;
61127;SDS011;47013;42.664;23.242;2022-11-15T09:11:21;1.50;;;1.15;;
61127;SDS011;47013;42.664;23.242;2022-11-15T09:13:48;2.30;;;0.95;;
61127;SDS011;47013;42.664;23.242;2022-11-15T09:16:14;1.63;;;1.27;;
61127;SDS011;47013;42.664;23.242;2022-11-15T09:18:40;1.85;;;1.10;;
61127;SDS011;47013;42.664;23.242;2022-11-15T09:21:07;1.38;;;1.25;;
61127;SDS011;47013;42.664;23.242;2022-11-15T09:23:33;2.40;;;1.98;;
61127;SDS011;47013;42.664;23.242;2022-11-15T09:26:00;4.03;;;2.05;;
61127;SDS011;47013;42.664;23.242;2022-11-15T09:28:27;0.90;;;0.63;;
61127;SDS011;47013;42.664;23.242;2022-11-15T09:31:00;1.90;;;1.20;;
61127;SDS011;47013;42.664;23.242;2022-11-15T09:33:28;0.95;;;0.85;;
61127;SDS011;47013;42.664;23.242;2022-11-15T09:35:54;2.13;;;1.48;;
61127;SDS011;47013;42.664;23.242;2022-11-15T09:38:24;2.50;;;2.08;;
61127;SDS011;47013;42.664;23.242;2022-11-15T09:40:51;2.10;;;1.77;;
61127;SDS011;47013;42.664;23.242;2022-11-15T09:46:07;3.25;;;2.10;;
61127;SDS011;47013;42.664;23.242;2022-11-15T09:51:08;2.17;;;1.55;;
61127;SDS011;47013;42.664;23.242;2022-11-15T09:53:57;0.65;;;0.65;;
61127;SDS011;47013;42.664;23.242;2022-11-15T09:56:27;2.97;;;1.95;;
61127;SDS011;47013;42.664;23.242;2022-11-15T10:01:39;3.38;;;2.10;;
61127;SDS011;47013;42.664;23.242;2022-11-15T10:04:19;2.15;;;1.55;;
61127;SDS011;47013;42.664;23.242;2022-11-15T10:06:48;2.42;;;2.08;;
61127;SDS011;47013;42.664;23.242;2022-11-15T10:09:19;4.15;;;2.55;;
61127;SDS011;47013;42.664;23.242;2022-11-15T10:11:54;5.82;;;3.22;;
61127;SDS011;47013;42.664;23.242;2022-11-15T10:14:20;3.03;;;2.58;;
61127;SDS011;47013;42.664;23.242;2022-11-15T10:25:10;2.45;;;1.80;;
61127;SDS011;47013;42.664;23.242;2022-11-15T10:27:42;2.65;;;1.55;;
61127;SDS011;47013;42.664;23.242;2022-11-15T10:30:19;6.22;;;1.33;;
61127;SDS011;47013;42.664;23.242;2022-11-15T10:32:48;5.20;;;3.38;;
61127;SDS011;47013;42.664;23.242;2022-11-15T10:35:18;1.50;;;1.05;;
61127;SDS011;47013;42.664;23.242;2022-11-15T10:37:46;2.10;;;1.70;;
61127;SDS011;47013;42.664;23.242;2022-11-15T10:40:17;2.90;;;1.52;;
61127;SDS011;47013;42.664;23.242;2022-11-15T10:42:44;11.05;;;4.18;;
61127;SDS011;47013;42.664;23.242;2022-11-15T10:45:26;3.13;;;2.53;;
61127;SDS011;47013;42.664;23.242;2022-11-15T10:47:53;4.82;;;3.30;;
61127;SDS011;47013;42.664;23.242;2022-11-15T10:50:43;4.75;;;2.83;;
61127;SDS011;47013;42.664;23.242;2022-11-15T10:55:48;6.35;;;2.70;;
61127;SDS011;47013;42.664;23.242;2022-11-15T11:01:17;3.28;;;1.85;;
61127;SDS011;47013;42.664;23.242;2022-11-15T11:04:00;4.15;;;2.75;;
61127;SDS011;47013;42.664;23.242;2022-11-15T11:11:54;8.95;;;3.67;;
61127;SDS011;47013;42.664;23.242;2022-11-15T11:14:21;3.28;;;2.45;;
61127;SDS011;47013;42.664;23.242;2022-11-15T11:19:56;5.70;;;3.13;;
61127;SDS011;47013;42.664;23.242;2022-11-15T11:25:42;4.45;;;2.45;;
61127;SDS011;47013;42.664;23.242;2022-11-15T11:33:38;7.03;;;3.22;;
61127;SDS011;47013;42.664;23.242;2022-11-15T11:37:30;7.88;;;3.72;;
61127;SDS011;47013;42.664;23.242;2022-11-15T11:39:48;5.78;;;3.30;;
61127;SDS011;47013;42.664;23.242;2022-11-15T11:47:32;5.93;;;3.75;;
61127;SDS011;47013;42.664;23.242;2022-11-15T11:50:10;7.22;;;3.25;;
61127;SDS011;47013;42.664;23.242;2022-11-15T11:55:21;6.32;;;3.75;;
61127;SDS011;47013;42.664;23.242;2022-11-15T12:00:24;5.28;;;3.40;;
61127;SDS011;47013;42.664;23.242;2022-11-15T12:05:30;6.00;;;3.53;;
61127;SDS011;47013;42.664;23.242;2022-11-15T12:10:30;3.58;;;2.10;;
61127;SDS011;47013;42.664;23.242;2022-11-15T12:13:09;4.22;;;2.80;;
61127;SDS011;47013;42.664;23.242;2022-11-15T12:16:16;10.13;;;4.35;;
61127;SDS011;47013;42.664;23.242;2022-11-15T12:18:40;4.47;;;2.65;;
61127;SDS011;47013;42.664;23.242;2022-11-15T12:24:01;4.53;;;2.70;;
61127;SDS011;47013;42.664;23.242;2022-11-15T12:26:35;5.20;;;3.25;;
61127;SDS011;47013;42.664;23.242;2022-11-15T12:29:15;9.00;;;2.83;;
61127;SDS011;47013;42.664;23.242;2022-11-15T12:31:49;3.80;;;2.47;;
61127;SDS011;47013;42.664;23.242;2022-11-15T12:36:45;8.25;;;3.72;;
61127;SDS011;47013;42.664;23.242;2022-11-15T12:39:12;2.95;;;2.20;;
61127;SDS011;47013;42.664;23.242;2022-11-15T12:41:39;6.47;;;4.30;;
61127;SDS011;47013;42.664;23.242;2022-11-15T12:44:13;5.32;;;3.17;;
61127;SDS011;47013;42.664;23.242;2022-11-15T13:02:23;5.10;;;2.97;;
61127;SDS011;47013;42.664;23.242;2022-11-15T13:04:50;7.57;;;3.17;;
61127;SDS011;47013;42.664;23.242;2022-11-15T13:17:44;6.53;;;2.33;;
61127;SDS011;47013;42.664;23.242;2022-11-15T13:33:20;6.07;;;3.03;;
61127;SDS011;47013;42.664;23.242;2022-11-15T13:35:55;5.70;;;2.78;;
61127;SDS011;47013;42.664;23.242;2022-11-15T13:38:38;3.60;;;2.30;;
61127;SDS011;47013;42.664;23.242;2022-11-15T13:43:51;3.00;;;2.10;;
61127;SDS011;47013;42.664;23.242;2022-11-15T13:48:44;7.45;;;2.80;;
61127;SDS011;47013;42.664;23.242;2022-11-15T13:51:16;4.45;;;2.55;;
61127;SDS011;47013;42.664;23.242;2022-11-15T13:53:45;5.90;;;2.80;;
61127;SDS011;47013;42.664;23.242;2022-11-15T13:56:15;2.03;;;1.52;;
61127;SDS011;47013;42.664;23.242;2022-11-15T13:58:43;4.00;;;2.58;;
61127;SDS011;47013;42.664;23.242;2022-11-15T14:01:13;5.82;;;3.17;;
61127;SDS011;47013;42.664;23.242;2022-11-15T14:03:46;4.13;;;2.28;;
61127;SDS011;47013;42.664;23.242;2022-11-15T14:06:21;4.53;;;2.10;;
61127;SDS011;47013;42.664;23.242;2022-11-15T14:08:58;6.72;;;3.08;;
61127;SDS011;47013;42.664;23.242;2022-11-15T14:11:36;4.72;;;3.28;;
61127;SDS011;47013;42.664;23.242;2022-11-15T14:19:01;5.25;;;3.05;;
61127;SDS011;47013;42.664;23.242;2022-11-15T14:21:28;3.20;;;2.00;;
61127;SDS011;47013;42.664;23.242;2022-11-15T14:24:13;5.72;;;4.15;;
61127;SDS011;47013;42.664;23.242;2022-11-15T14:26:40;3.55;;;2.78;;
61127;SDS011;47013;42.664;23.242;2022-11-15T14:32:22;3.75;;;2.50;;
61127;SDS011;47013;42.664;23.242;2022-11-15T14:34:54;4.50;;;2.67;;
61127;SDS011;47013;42.664;23.242;2022-11-15T14:37:23;4.30;;;3.08;;
61127;SDS011;47013;42.664;23.242;2022-11-15T14:39:53;4.47;;;3.15;;
61127;SDS011;47013;42.664;23.242;2022-11-15T14:42:20;4.22;;;2.70;;
61127;SDS011;47013;42.664;23.242;2022-11-15T14:44:46;5.63;;;2.85;;
61127;SDS011;47013;42.664;23.242;2022-11-15T14:47:13;7.13;;;3.97;;
61127;SDS011;47013;42.664;23.242;2022-11-15T14:49:38;4.30;;;2.53;;
61127;SDS011;47013;42.664;23.242;2022-11-15T14:52:38;2.60;;;2.03;;
61127;SDS011;47013;42.664;23.242;2022-11-15T14:55:00;3.40;;;2.17;;
61127;SDS011;47013;42.664;23.242;2022-11-15T14:57:27;4.20;;;2.70;;
61127;SDS011;47013;42.664;23.242;2022-11-15T14:59:54;3.08;;;2.38;;
61127;SDS011;47013;42.664;23.242;2022-11-15T15:02:20;4.97;;;3.30;;
61127;SDS011;47013;42.664;23.242;2022-11-15T15:04:47;5.70;;;2.53;;
61127;SDS011;47013;42.664;23.242;2022-11-15T15:07:14;5.07;;;3.03;;
61127;SDS011;47013;42.664;23.242;2022-11-15T15:09:40;3.80;;;2.10;;
61127;SDS011;47013;42.664;23.242;2022-11-15T15:12:11;3.33;;;2.22;;
61127;SDS011;47013;42.664;23.242;2022-11-15T15:14:43;3.58;;;2.90;;
61127;SDS011;47013;42.664;23.242;2022-11-15T15:17:08;4.05;;;3.08;;
61127;SDS011;47013;42.664;23.242;2022-11-15T15:19:34;5.88;;;2.83;;
61127;SDS011;47013;42.664;23.242;2022-11-15T15:22:00;6.97;;;3.53;;
61127;SDS011;47013;42.664;23.242;2022-11-15T15:24:25;5.65;;;3.33;;
61127;SDS011;47013;42.664;23.242;2022-11-15T15:26:51;3.97;;;2.95;;
61127;SDS011;47013;42.664;23.242;2022-11-15T15:29:16;4.82;;;2.83;;
61127;SDS011;47013;42.664;23.242;2022-11-15T15:31:41;4.32;;;2.67;;
61127;SDS011;47013;42.664;23.242;2022-11-15T15:34:07;4.18;;;2.70;;
61127;SDS011;47013;42.664;23.242;2022-11-15T15:36:32;5.93;;;4.20;;
61127;SDS011;47013;42.664;23.242;2022-11-15T15:38:57;5.93;;;3.13;;
61127;SDS011;47013;42.664;23.242;2022-11-15T15:41:23;3.40;;;2.50;;
61127;SDS011;47013;42.664;23.242;2022-11-15T15:43:48;8.15;;;3.97;;
61127;SDS011;47013;42.664;23.242;2022-11-15T15:46:14;4.05;;;2.53;;
61127;SDS011;47013;42.664;23.242;2022-11-15T15:48:41;6.00;;;4.18;;
61127;SDS011;47013;42.664;23.242;2022-11-15T15:51:07;4.47;;;2.80;;
61127;SDS011;47013;42.664;23.242;2022-11-15T15:53:32;6.88;;;3.88;;
61127;SDS011;47013;42.664;23.242;2022-11-15T15:55:58;8.77;;;3.22;;
61127;SDS011;47013;42.664;23.242;2022-11-15T15:58:23;5.72;;;3.05;;
61127;SDS011;47013;42.664;23.242;2022-11-15T16:00:49;5.93;;;3.83;;
61127;SDS011;47013;42.664;23.242;2022-11-15T16:03:14;4.60;;;3.10;;
61127;SDS011;47013;42.664;23.242;2022-11-15T16:05:39;4.45;;;3.13;;
61127;SDS011;47013;42.664;23.242;2022-11-15T16:08:05;3.60;;;2.35;;
61127;SDS011;47013;42.664;23.242;2022-11-15T16:10:31;7.90;;;3.38;;
61127;SDS011;47013;42.664;23.242;2022-11-15T16:12:59;5.60;;;3.50;;
61127;SDS011;47013;42.664;23.242;2022-11-15T16:15:25;7.57;;;5.30;;
61127;SDS011;47013;42.664;23.242;2022-11-15T16:17:54;6.60;;;4.68;;
61127;SDS011;47013;42.664;23.242;2022-11-15T16:22:59;3.17;;;2.47;;
61127;SDS011;47013;42.664;23.242;2022-11-15T16:25:25;4.25;;;3.35;;
61127;SDS011;47013;42.664;23.242;2022-11-15T16:27:50;6.43;;;4.18;;
61127;SDS011;47013;42.664;23.242;2022-11-15T16:30:17;4.53;;;3.55;;
61127;SDS011;47013;42.664;23.242;2022-11-15T16:32:44;3.10;;;2.78;;
61127;SDS011;47013;42.664;23.242;2022-11-15T16:35:10;2.58;;;1.90;;
61127;SDS011;47013;42.664;23.242;2022-11-15T16:37:40;4.85;;;3.38;;
61127;SDS011;47013;42.664;23.242;2022-11-15T16:40:48;5.90;;;2.75;;
61127;SDS011;47013;42.664;23.242;2022-11-15T16:42:57;8.45;;;2.42;;
61127;SDS011;47013;42.664;23.242;2022-11-15T16:45:28;9.43;;;5.30;;
61127;SDS011;47013;42.664;23.242;2022-11-15T16:47:54;6.38;;;3.45;;
61127;SDS011;47013;42.664;23.242;2022-11-15T16:50:38;5.68;;;3.60;;
61127;SDS011;47013;42.664;23.242;2022-11-15T16:53:07;2.65;;;1.52;;
61127;SDS011;47013;42.664;23.242;2022-11-15T16:55:32;6.78;;;4.03;;
61127;SDS011;47013;42.664;23.242;2022-11-15T16:57:57;5.68;;;2.92;;
61127;SDS011;47013;42.664;23.242;2022-11-15T17:00:23;8.50;;;4.40;;
61127;SDS011;47013;42.664;23.242;2022-11-15T17:02:50;7.40;;;4.38;;
61127;SDS011;47013;42.664;23.242;2022-11-15T17:05:16;8.98;;;5.18;;
61127;SDS011;47013;42.664;23.242;2022-11-15T17:07:45;5.88;;;3.58;;
61127;SDS011;47013;42.664;23.242;2022-11-15T17:10:16;8.63;;;4.95;;
61127;SDS011;47013;42.664;23.242;2022-11-15T17:12:41;7.13;;;3.70;;
61127;SDS011;47013;42.664;23.242;2022-11-15T17:15:08;4.90;;;2.70;;
61127;SDS011;47013;42.664;23.242;2022-11-15T17:17:36;5.55;;;3.35;;
61127;SDS011;47013;42.664;23.242;2022-11-15T17:20:01;4.40;;;2.90;;
61127;SDS011;47013;42.664;23.242;2022-11-15T17:22:29;6.60;;;3.33;;
61127;SDS011;47013;42.664;23.242;2022-11-15T17:24:54;6.20;;;3.55;;
61127;SDS011;47013;42.664;23.242;2022-11-15T17:27:20;5.95;;;4.45;;